Time;durP1;ratioP1;P1;durP2;ratioP2;P2;SDS_P1;SDS_P2;PMS_P1;PMS_P2;Temp;Humidity;BMP_temperature;BMP_pressure;BME280_temperature;BME280_humidity;BME280_pressure;Samples;Min_cycle;Max_cycle;Signal;HPM_P1;HPM_P2
2023/12/26 00:00:49;;;;;;;37.42;35.55;;;;;;;;;;5095301;28;20051;-92
2023/12/26 00:03:16;;;;;;;30.05;28.48;;;;;;;;;;5095160;28;20079;-93
2023/12/26 00:05:43;;;;;;;28.88;27.42;;;;;;;;;;5094760;28;20056;-94
2023/12/26 00:08:09;;;;;;;25.33;24.00;;;;;;;;;;5095773;28;20052;-94
2023/12/26 00:10:36;;;;;;;32.63;31.13;;;;;;;;;;5095170;28;20040;-94
2023/12/26 00:13:03;;;;;;;25.98;24.90;;;;;;;;;;5094560;28;20495;-95
2023/12/26 00:15:32;;;;;;;23.90;22.77;;;;;;;;;;5095192;28;20111;-93
2023/12/26 00:17:58;;;;;;;25.20;23.70;;;;;;;;;;5094471;28;20075;-94
2023/12/26 00:20:25;;;;;;;22.20;21.23;;;;;;;;;;5094919;28;20047;-94
2023/12/26 00:22:51;;;;;;;;;;;;;;;;;;5095142;28;20063;-93
2023/12/26 00:25:17;;;;;;;;;;;;;;;;;;5095477;28;19920;-92
2023/12/26 00:27:44;;;;;;;;;;;;;;;;;;5094839;28;19920;-93
2023/12/26 00:30:11;;;;;;;;;;;;;;;;;;5094937;28;19927;-93
2023/12/26 00:32:38;;;;;;;18.17;17.00;;;;;;;;;;5094609;28;19927;-93
2023/12/26 00:35:04;;;;;;;17.05;15.38;;;;;;;;;;5094621;28;20482;-93
2023/12/26 00:37:32;;;;;;;26.63;25.20;;;;;;;;;;5094618;28;20595;-92
2023/12/26 00:39:59;;;;;;;23.35;22.15;;;;;;;;;;5094446;28;20052;-93
2023/12/26 00:42:26;;;;;;;25.98;24.55;;;;;;;;;;5094674;28;20497;-94
2023/12/26 00:44:53;;;;;;;26.13;24.67;;;;;;;;;;5094639;28;20155;-93
2023/12/26 00:47:19;;;;;;;22.15;21.15;;;;;;;;;;5094575;28;20048;-93
2023/12/26 00:49:47;;;;;;;20.60;19.42;;;;;;;;;;5094460;28;20067;-94
2023/12/26 00:52:14;;;;;;;12.98;12.25;;;;;;;;;;5102549;28;20413;-93
2023/12/26 00:54:40;;;;;;;23.55;22.20;;;;;;;;;;5114787;28;20048;-93
2023/12/26 00:57:07;;;;;;;27.77;26.42;;;;;;;;;;5114613;28;20058;-93
2023/12/26 00:59:34;;;;;;;29.55;28.20;;;;;;;;;;5116084;28;20048;-93
2023/12/26 01:02:01;;;;;;;35.10;33.53;;;;;;;;;;5117711;28;20055;-94
2023/12/26 01:04:28;;;;;;;27.33;26.13;;;;;;;;;;5118017;28;20108;-93
2023/12/26 01:06:56;;;;;;;26.15;24.30;;;;;;;;;;5118026;28;20043;-94
2023/12/26 01:09:23;;;;;;;30.85;29.20;;;;;;;;;;5118284;28;20054;-93
2023/12/26 01:11:49;;;;;;;31.80;30.20;;;;;;;;;;5118321;28;20052;-93
2023/12/26 01:14:16;;;;;;;31.50;29.98;;;;;;;;;;5117761;28;20052;-93
2023/12/26 01:16:45;;;;;;;24.23;23.05;;;;;;;;;;5117903;28;20055;-93
2023/12/26 01:19:11;;;;;;;14.75;13.85;;;;;;;;;;5118115;28;20401;-92
2023/12/26 01:21:38;;;;;;;32.03;30.35;;;;;;;;;;5104964;28;20498;-93
2023/12/26 01:24:06;;;;;;;24.35;23.23;;;;;;;;;;5097588;28;20395;-93
2023/12/26 01:26:33;;;;;;;;;;;;;;;;;;5097885;28;20133;-91
2023/12/26 01:29:00;;;;;;;;;;;;;;;;;;5097718;28;20308;-91
2023/12/26 01:31:27;;;;;;;;;;;;;;;;;;5109189;28;19967;-91
2023/12/26 01:33:53;;;;;;;;;;;;;;;;;;5117332;28;19919;-91
2023/12/26 01:36:20;;;;;;;;;;;;;;;;;;5097564;28;19970;-92
2023/12/26 01:38:47;;;;;;;;;;;;;;;;;;5097097;28;20377;-91
2023/12/26 01:41:13;;;;;;;;;;;;;;;;;;5096965;28;19971;-92
2023/12/26 01:43:39;;;;;;;;;;;;;;;;;;5097165;28;19924;-92
2023/12/26 01:46:05;;;;;;;;;;;;;;;;;;5116683;28;20224;-91
2023/12/26 01:48:32;;;;;;;;;;;;;;;;;;5104099;28;19920;-92
2023/12/26 01:51:00;;;;;;;;;;;;;;;;;;5098379;28;20396;-92
2023/12/26 01:53:26;;;;;;;;;;;;;;;;;;5097463;28;19920;-92
2023/12/26 01:55:52;;;;;;;;;;;;;;;;;;5097558;28;20585;-91
2023/12/26 01:58:19;;;;;;;;;;;;;;;;;;5098233;28;19935;-92
2023/12/26 02:00:45;;;;;;;;;;;;;;;;;;5097541;28;19926;-92
2023/12/26 02:03:11;;;;;;;;;;;;;;;;;;5097285;28;19920;-93
2023/12/26 02:05:37;;;;;;;;;;;;;;;;;;5097086;28;19923;-93
2023/12/26 02:08:04;;;;;;;;;;;;;;;;;;5116629;28;19920;-94
2023/12/26 02:10:30;;;;;;;;;;;;;;;;;;5114044;28;19935;-93
2023/12/26 02:12:58;;;;;;;21.92;20.80;;;;;;;;;;5096730;28;19920;-93
2023/12/26 02:15:25;;;;;;;24.70;23.35;;;;;;;;;;5096936;28;20055;-92
2023/12/26 02:17:52;;;;;;;21.13;20.10;;;;;;;;;;5096151;28;20095;-92
2023/12/26 02:20:18;;;;;;;;;;;;;;;;;;5096922;28;20054;-93
2023/12/26 02:22:45;;;;;;;;;;;;;;;;;;5096939;28;19927;-94
2023/12/26 02:25:12;;;;;;;;;;;;;;;;;;5117776;28;19974;-92
2023/12/26 02:27:38;;;;;;;;;;;;;;;;;;5117152;28;19926;-93
2023/12/26 02:30:05;;;;;;;;;;;;;;;;;;5117373;28;19927;-92
2023/12/26 02:32:32;;;;;;;;;;;;;;;;;;5118343;28;19926;-92
2023/12/26 02:35:00;;;;;;;;;;;;;;;;;;5116784;28;19919;-92
2023/12/26 02:37:26;;;;;;;;;;;;;;;;;;5117170;28;20369;-93
2023/12/26 02:39:54;;;;;;;28.27;27.17;;;;;;;;;;5116531;28;20001;-92
2023/12/26 02:42:22;;;;;;;22.55;21.65;;;;;;;;;;5117079;28;20050;-92
2023/12/26 02:44:48;;;;;;;23.10;22.13;;;;;;;;;;5132156;27;20044;-92
2023/12/26 02:47:15;;;;;;;24.45;23.52;;;;;;;;;;5116198;28;20055;-92
2023/12/26 02:49:42;;;;;;;27.35;25.55;;;;;;;;;;5116454;28;20048;-91
2023/12/26 02:52:08;;;;;;;62.37;58.80;;;;;;;;;;5115358;28;20403;-91
2023/12/26 02:54:36;;;;;;;83.20;79.22;;;;;;;;;;5115015;28;20396;-92
2023/12/26 02:57:04;;;;;;;94.30;89.97;;;;;;;;;;5114611;28;20813;-92
2023/12/26 02:59:31;;;;;;;86.57;82.18;;;;;;;;;;5114833;28;20415;-91
2023/12/26 03:01:58;;;;;;;92.22;87.45;;;;;;;;;;5115125;28;20427;-91
2023/12/26 03:04:26;;;;;;;102.00;97.17;;;;;;;;;;5114845;28;20457;-92
2023/12/26 03:06:52;;;;;;;106.43;101.47;;;;;;;;;;5114605;28;20457;-92
2023/12/26 03:09:19;;;;;;;101.60;96.57;;;;;;;;;;5114126;28;21004;-91
2023/12/26 03:11:45;;;;;;;110.82;105.05;;;;;;;;;;5113728;28;20393;-92
2023/12/26 03:14:13;;;;;;;106.15;100.45;;;;;;;;;;5114682;28;20412;-93
2023/12/26 03:16:40;;;;;;;103.85;98.30;;;;;;;;;;5114823;28;20392;-92
2023/12/26 03:19:07;;;;;;;112.30;106.88;;;;;;;;;;5114337;28;20400;-91
2023/12/26 03:21:33;;;;;;;98.80;94.40;;;;;;;;;;5114339;28;20419;-91
2023/12/26 03:24:00;;;;;;;93.47;89.15;;;;;;;;;;5113347;28;20766;-91
2023/12/26 03:26:26;;;;;;;93.72;89.55;;;;;;;;;;5114534;28;20724;-91
2023/12/26 03:28:53;;;;;;;109.97;105.43;;;;;;;;;;5114523;28;20404;-91
2023/12/26 03:31:21;;;;;;;98.93;94.63;;;;;;;;;;5114113;28;20404;-90
2023/12/26 03:33:47;;;;;;;89.35;85.53;;;;;;;;;;5113878;28;20766;-91
2023/12/26 03:36:14;;;;;;;91.82;88.10;;;;;;;;;;5114115;28;20997;-91
2023/12/26 03:38:43;;;;;;;73.80;70.40;;;;;;;;;;5113679;28;20404;-91
2023/12/26 03:41:10;;;;;;;85.93;82.30;;;;;;;;;;5113705;28;20419;-91
2023/12/26 03:43:36;;;;;;;84.05;80.45;;;;;;;;;;5113895;28;20392;-91
2023/12/26 03:46:03;;;;;;;86.53;82.85;;;;;;;;;;5114093;28;20400;-91
2023/12/26 03:48:31;;;;;;;94.72;90.75;;;;;;;;;;5113782;28;20513;-91
2023/12/26 03:50:57;;;;;;;98.90;94.82;;;;;;;;;;5113516;28;20404;-91
2023/12/26 03:53:24;;;;;;;90.85;87.03;;;;;;;;;;5113634;28;20419;-91
2023/12/26 03:55:51;;;;;;;93.30;89.20;;;;;;;;;;5113903;28;20411;-92
2023/12/26 03:58:17;;;;;;;103.43;98.93;;;;;;;;;;5113177;28;20399;-92
2023/12/26 04:00:44;;;;;;;108.77;104.13;;;;;;;;;;5113153;28;20412;-91
2023/12/26 04:03:10;;;;;;;91.63;87.88;;;;;;;;;;5113388;28;20427;-91
2023/12/26 04:05:38;;;;;;;109.40;104.97;;;;;;;;;;5113267;28;20412;-91
2023/12/26 04:08:05;;;;;;;106.70;102.40;;;;;;;;;;5113437;28;20396;-91
2023/12/26 04:10:32;;;;;;;90.53;86.73;;;;;;;;;;5113651;28;20461;-92
2023/12/26 04:12:58;;;;;;;99.47;95.18;;;;;;;;;;5113113;28;20408;-91
2023/12/26 04:15:25;;;;;;;95.07;90.70;;;;;;;;;;5113082;28;20407;-92
2023/12/26 04:17:52;;;;;;;119.22;114.65;;;;;;;;;;5113410;28;20399;-92
2023/12/26 04:20:18;;;;;;;97.25;92.93;;;;;;;;;;5113564;28;20404;-92
2023/12/26 04:22:46;;;;;;;108.07;103.63;;;;;;;;;;5113297;28;20459;-92
2023/12/26 04:25:13;;;;;;;101.85;97.32;;;;;;;;;;5113954;28;20484;-92
2023/12/26 04:27:39;;;;;;;107.90;103.03;;;;;;;;;;5114008;28;20396;-93
2023/12/26 04:30:07;;;;;;;109.38;104.30;;;;;;;;;;5114085;28;20403;-92
2023/12/26 04:32:34;;;;;;;99.88;95.50;;;;;;;;;;5113470;28;20412;-93
2023/12/26 04:35:00;;;;;;;104.57;100.18;;;;;;;;;;5115924;28;20415;-92
2023/12/26 04:37:27;;;;;;;100.15;95.82;;;;;;;;;;5117572;28;20403;-92
2023/12/26 04:39:55;;;;;;;101.30;96.90;;;;;;;;;;5117584;28;20403;-92
2023/12/26 04:42:21;;;;;;;90.65;86.70;;;;;;;;;;5117574;28;20432;-92
2023/12/26 04:44:48;;;;;;;105.82;101.45;;;;;;;;;;5117404;28;20400;-92
2023/12/26 04:47:14;;;;;;;106.35;101.80;;;;;;;;;;5117432;28;20400;-91
2023/12/26 04:49:41;;;;;;;91.93;87.72;;;;;;;;;;5116599;28;20408;-91
2023/12/26 04:52:08;;;;;;;95.35;91.05;;;;;;;;;;5111623;28;20422;-91
2023/12/26 04:54:34;;;;;;;85.55;81.30;;;;;;;;;;5096382;28;20425;-90
2023/12/26 04:57:02;;;;;;;85.13;81.15;;;;;;;;;;5096873;28;20408;-92
2023/12/26 04:59:29;;;;;;;92.68;88.40;;;;;;;;;;5096678;28;20417;-92
2023/12/26 05:01:55;;;;;;;81.78;77.78;;;;;;;;;;5096754;28;20463;-92
2023/12/26 05:04:22;;;;;;;99.25;94.57;;;;;;;;;;5096014;28;21119;-92
2023/12/26 05:06:48;;;;;;;94.28;90.03;;;;;;;;;;5097030;28;20417;-92
2023/12/26 05:09:16;;;;;;;90.47;86.45;;;;;;;;;;5096003;28;20768;-91
2023/12/26 05:11:42;;;;;;;100.43;95.90;;;;;;;;;;5109176;28;20428;-91
2023/12/26 05:14:10;;;;;;;93.80;89.60;;;;;;;;;;5116234;28;20412;-92
2023/12/26 05:16:39;;;;;;;88.70;84.70;;;;;;;;;;5102907;28;20398;-91
2023/12/26 05:19:07;;;;;;;99.80;95.67;;;;;;;;;;5095834;28;20398;-91
2023/12/26 05:21:33;;;;;;;84.65;80.82;;;;;;;;;;5096286;28;20417;-92
2023/12/26 05:24:00;;;;;;;84.20;80.15;;;;;;;;;;5096313;28;20426;-92
2023/12/26 05:26:26;;;;;;;91.47;87.18;;;;;;;;;;5096274;28;20425;-92
2023/12/26 05:28:53;;;;;;;103.40;98.57;;;;;;;;;;5096108;28;20426;-91
2023/12/26 05:31:21;;;;;;;94.32;89.70;;;;;;;;;;5106332;28;20415;-91
2023/12/26 05:33:47;;;;;;;101.35;96.45;;;;;;;;;;5116440;28;20419;-91
2023/12/26 05:36:14;;;;;;;102.88;98.35;;;;;;;;;;5111062;28;20402;-92
2023/12/26 05:38:41;;;;;;;94.45;89.65;;;;;;;;;;5095061;28;20914;-92
2023/12/26 05:41:07;;;;;;;90.43;85.88;;;;;;;;;;5095629;28;20487;-91
2023/12/26 05:43:34;;;;;;;98.00;92.85;;;;;;;;;;5095109;28;20418;-91
2023/12/26 05:46:01;;;;;;;103.87;98.00;;;;;;;;;;5093785;28;20420;-91
2023/12/26 05:48:29;;;;;;;100.77;95.10;;;;;;;;;;5104060;28;20420;-91
2023/12/26 05:50:55;;;;;;;104.82;98.25;;;;;;;;;;5116188;28;20877;-91
2023/12/26 05:53:22;;;;;;;106.30;99.57;;;;;;;;;;5115545;28;20392;-91
2023/12/26 05:55:49;;;;;;;93.80;87.78;;;;;;;;;;5115375;28;20923;-91
2023/12/26 05:58:15;;;;;;;99.47;93.57;;;;;;;;;;5114970;28;20404;-91
2023/12/26 06:00:42;;;;;;;105.40;99.25;;;;;;;;;;5115122;28;20396;-91
2023/12/26 06:03:09;;;;;;;109.65;102.75;;;;;;;;;;5114737;28;20420;-91
2023/12/26 06:05:36;;;;;;;101.03;94.50;;;;;;;;;;5114777;28;20412;-91
2023/12/26 06:08:05;;;;;;;107.25;99.55;;;;;;;;;;5115106;28;20392;-91
2023/12/26 06:10:32;;;;;;;100.17;93.93;;;;;;;;;;5114937;28;20418;-90
2023/12/26 06:12:58;;;;;;;115.35;108.25;;;;;;;;;;5115108;28;20420;-91
2023/12/26 06:15:25;;;;;;;107.53;101.20;;;;;;;;;;5115235;28;20404;-91
2023/12/26 06:17:52;;;;;;;96.93;91.68;;;;;;;;;;5114493;28;20401;-90
2023/12/26 06:20:21;;;;;;;100.03;95.22;;;;;;;;;;5114721;28;20399;-90
2023/12/26 06:22:49;;;;;;;94.95;90.53;;;;;;;;;;5114567;28;20526;-91
2023/12/26 06:25:16;;;;;;;110.07;104.67;;;;;;;;;;5111795;28;20902;-91
2023/12/26 06:27:43;;;;;;;107.22;102.00;;;;;;;;;;5094541;28;20402;-91
2023/12/26 06:30:10;;;;;;;96.95;91.93;;;;;;;;;;5094319;28;20409;-91
2023/12/26 06:32:37;;;;;;;109.13;103.90;;;;;;;;;;5093936;28;20413;-91
2023/12/26 06:35:03;;;;;;;89.93;85.13;;;;;;;;;;5093855;28;20888;-92
2023/12/26 06:37:30;;;;;;;98.78;94.00;;;;;;;;;;5093973;28;20925;-91
2023/12/26 06:39:58;;;;;;;107.18;102.10;;;;;;;;;;5094428;28;20425;-91
2023/12/26 06:42:24;;;;;;;102.85;97.90;;;;;;;;;;5094010;28;20892;-91
2023/12/26 06:44:51;;;;;;;116.18;110.95;;;;;;;;;;5094654;28;20521;-90
2023/12/26 06:47:18;;;;;;;86.05;81.72;;;;;;;;;;5094491;28;20402;-90
2023/12/26 06:49:45;;;;;;;98.10;93.68;;;;;;;;;;5093820;28;20918;-90
2023/12/26 06:52:12;;;;;;;93.93;89.15;;;;;;;;;;5094183;28;20462;-90
2023/12/26 06:54:39;;;;;;;109.57;103.27;;;;;;;;;;5093703;28;20405;-90
2023/12/26 06:57:08;;;;;;;102.88;96.70;;;;;;;;;;5093770;28;20868;-91
2023/12/26 06:59:35;;;;;;;97.57;92.10;;;;;;;;;;5093765;28;20937;-89
2023/12/26 07:02:01;;;;;;;107.72;101.57;;;;;;;;;;5093585;28;20397;-90
2023/12/26 07:04:28;;;;;;;103.10;97.13;;;;;;;;;;5093332;28;20429;-91
2023/12/26 07:06:54;;;;;;;104.22;98.25;;;;;;;;;;5092970;28;20891;-90
2023/12/26 07:09:21;;;;;;;58.20;54.15;;;;;;;;;;5094349;28;20056;-91
2023/12/26 07:11:48;;;;;;;52.22;49.33;;;;;;;;;;5094809;28;20047;-90
2023/12/26 07:14:14;;;;;;;;;;;;;;;;;;5094217;28;20501;-90
2023/12/26 07:16:41;;;;;;;;;;;;;;;;;;5095508;28;19928;-90
2023/12/26 07:19:07;;;;;;;;;;;;;;;;;;5095345;28;19919;-90
2023/12/26 07:21:33;;;;;;;;;;;;;;;;;;5095105;28;19927;-91
2023/12/26 07:23:59;;;;;;;;;;;;;;;;;;5095172;28;19920;-90
2023/12/26 07:26:26;;;;;;;;;;;;;;;;;;5101788;28;20408;-90
2023/12/26 07:28:53;;;;;;;;;;;;;;;;;;5115391;28;19965;-90
2023/12/26 07:31:19;;;;;;;;;;;;;;;;;;5115042;28;19920;-90
2023/12/26 07:33:45;;;;;;;;;;;;;;;;;;5116130;28;19924;-90
2023/12/26 07:36:12;;;;;;;;;;;;;;;;;;5116143;28;20273;-91
2023/12/26 07:38:38;;;;;;;;;;;;;;;;;;5115578;28;19927;-91
2023/12/26 07:41:06;;;;;;;;;;;;;;;;;;5120065;28;19919;-91
2023/12/26 07:43:32;;;;;;;;;;;;;;;;;;5120185;28;19919;-90
2023/12/26 07:45:58;;;;;;;;;;;;;;;;;;5115271;28;19919;-91
2023/12/26 07:48:25;;;;;;;;;;;;;;;;;;5115150;28;19920;-91
2023/12/26 07:50:53;;;;;;;27.98;25.92;;;;;;;;;;5115024;28;19924;-91
2023/12/26 07:53:20;;;;;;;34.50;32.47;;;;;;;;;;5114957;28;20051;-90
2023/12/26 07:55:46;;;;;;;37.63;35.60;;;;;;;;;;5114731;28;20044;-91
2023/12/26 07:58:13;;;;;;;41.17;39.05;;;;;;;;;;5114729;28;20047;-91
2023/12/26 08:00:39;;;;;;;42.28;40.17;;;;;;;;;;5114999;28;20047;-90
2023/12/26 08:03:06;;;;;;;;;;;;;;;;;;5115536;28;20047;-91
2023/12/26 08:05:32;;;;;;;;;;;;;;;;;;5115642;28;19919;-91
2023/12/26 08:07:58;;;;;;;;;;;;;;;;;;5114611;28;20378;-91
2023/12/26 08:10:26;;;;;;;32.30;30.52;;;;;;;;;;5114482;28;19920;-90
2023/12/26 08:12:53;;;;;;;40.13;38.00;;;;;;;;;;5114266;28;20056;-91
2023/12/26 08:15:18;;;;;;;34.30;32.75;;;;;;;;;;5114268;28;20501;-90
2023/12/26 08:17:45;;;;;;;;;;;;;;;;;;5114950;28;20043;-90
2023/12/26 08:20:11;;;;;;;34.58;32.70;;;;;;;;;;5113952;28;19924;-90
2023/12/26 08:22:38;;;;;;;41.75;39.40;;;;;;;;;;5114214;28;20047;-90
2023/12/26 08:25:05;;;;;;;27.60;26.38;;;;;;;;;;5113801;28;20515;-90
2023/12/26 08:27:33;;;;;;;41.25;39.15;;;;;;;;;;5113917;28;20047;-91
2023/12/26 08:29:59;;;;;;;46.90;44.42;;;;;;;;;;5113865;28;20573;-90
2023/12/26 08:32:26;;;;;;;55.28;52.53;;;;;;;;;;5116703;28;20047;-90
2023/12/26 08:34:52;;;;;;;45.22;43.20;;;;;;;;;;5115202;28;20044;-90
2023/12/26 08:37:20;;;;;;;42.60;40.15;;;;;;;;;;5113618;28;20110;-89
2023/12/26 08:39:46;;;;;;;;;;;;;;;;;;5114215;28;20040;-89
2023/12/26 08:42:12;;;;;;;;;;;;;;;;;;5114413;28;19919;-93
2023/12/26 08:44:38;;;;;;;;;;;;;;;;;;5115003;28;19926;-92
2023/12/26 08:47:05;;;;;;;;;;;;;;;;;;5114921;28;19919;-93
2023/12/26 08:49:31;;;;;;;;;;;;;;;;;;5114803;28;20340;-92
2023/12/26 08:51:58;;;;;;;;;;;;;;;;;;5114516;28;19920;-92
2023/12/26 08:54:24;;;;;;;;;;;;;;;;;;5114817;28;19926;-91
2023/12/26 08:56:50;;;;;;;;;;;;;;;;;;5114575;28;20396;-92
2023/12/26 08:59:17;;;;;;;;;;;;;;;;;;5115114;28;19920;-91
2023/12/26 09:01:43;;;;;;;;;;;;;;;;;;5114795;28;19920;-92
2023/12/26 09:04:09;;;;;;;;;;;;;;;;;;5114406;28;20377;-91
2023/12/26 09:06:36;;;;;;;;;;;;;;;;;;5115112;28;19924;-93
2023/12/26 09:09:02;;;;;;;;;;;;;;;;;;5114893;28;19920;-92
2023/12/26 09:11:29;;;;;;;;;;;;;;;;;;5115095;28;19920;-92
2023/12/26 09:13:55;;;;;;;;;;;;;;;;;;5114678;28;19920;-93
2023/12/26 09:16:22;;;;;;;;;;;;;;;;;;5114885;28;19923;-92
2023/12/26 09:18:48;;;;;;;;;;;;;;;;;;5114621;28;20377;-93
2023/12/26 09:21:14;;;;;;;;;;;;;;;;;;5116022;28;19927;-93
2023/12/26 09:23:41;;;;;;;;;;;;;;;;;;5118692;28;19919;-93
2023/12/26 09:26:07;;;;;;;;;;;;;;;;;;5118656;28;20377;-93
2023/12/26 09:28:33;;;;;;;;;;;;;;;;;;5118961;28;19920;-93
2023/12/26 09:31:00;;;;;;;;;;;;;;;;;;5118455;28;19919;-93
2023/12/26 09:33:26;;;;;;;;;;;;;;;;;;5118359;28;19926;-92
2023/12/26 09:35:52;;;;;;;;;;;;;;;;;;5118283;28;19923;-92
2023/12/26 09:38:18;;;;;;;;;;;;;;;;;;5117881;28;19920;-89
2023/12/26 09:40:47;;;;;;;57.03;53.33;;;;;;;;;;5118200;28;19920;-91
2023/12/26 09:43:14;;;;;;;64.63;61.15;;;;;;;;;;5117831;28;20355;-93
2023/12/26 09:45:41;;;;;;;78.00;73.38;;;;;;;;;;5116763;28;20075;-92
2023/12/26 09:48:08;;;;;;;69.25;66.13;;;;;;;;;;5117548;28;20050;-91
2023/12/26 09:50:35;;;;;;;82.20;78.10;;;;;;;;;;5117284;28;20054;-92
2023/12/26 09:53:02;;;;;;;79.57;75.68;;;;;;;;;;5117282;28;20051;-92
2023/12/26 09:55:29;;;;;;;93.43;89.10;;;;;;;;;;5117474;28;20048;-91
2023/12/26 09:57:58;;;;;;;66.38;63.05;;;;;;;;;;5117427;28;20051;-90
2023/12/26 10:00:25;;;;;;;78.13;74.47;;;;;;;;;;5117541;28;20055;-91
2023/12/26 10:02:52;;;;;;;;;;;;;;;;;;5117558;28;20052;-90
2023/12/26 10:05:18;;;;;;;64.35;60.63;;;;;;;;;;5116546;28;19927;-92
2023/12/26 10:07:45;;;;;;;75.47;71.72;;;;;;;;;;5116634;28;20047;-92
2023/12/26 10:10:19;;;;;;;67.00;63.80;;;;;;;;;;5116727;28;20073;-92
2023/12/26 10:12:46;;;;;;;83.82;79.88;;;;;;;;;;5116342;28;20063;-93
2023/12/26 10:15:13;;;;;;;77.72;74.07;;;;;;;;;;5116481;28;20047;-92
2023/12/26 10:17:41;;;;;;;71.45;67.65;;;;;;;;;;5116752;28;20052;-92
2023/12/26 10:20:08;;;;;;;76.03;72.25;;;;;;;;;;5111177;28;20040;-93
2023/12/26 10:22:34;;;;;;;76.18;72.32;;;;;;;;;;5096323;28;20082;-92
2023/12/26 10:25:01;;;;;;;84.82;80.93;;;;;;;;;;5096370;28;20048;-92
2023/12/26 10:27:27;;;;;;;77.47;73.10;;;;;;;;;;5095925;28;20059;-92
2023/12/26 10:29:54;;;;;;;;;;;;;;;;;;5096550;28;20478;-92
2023/12/26 10:32:24;;;;;;;;;;;;;;;;;;5096152;28;19927;-92
2023/12/26 10:34:50;;;;;;;;;;;;;;;;;;5096146;28;19919;-92
2023/12/26 10:37:20;;;;;;;69.35;66.43;;;;;;;;;;5095959;28;19927;-92
2023/12/26 10:39:46;;;;;;;71.97;68.35;;;;;;;;;;5095726;28;20048;-91
2023/12/26 10:42:14;;;;;;;69.28;66.03;;;;;;;;;;5095959;28;20051;-92
2023/12/26 10:44:52;;;;;;;;;;;;;;;;;;5095870;28;20411;-93
2023/12/26 10:47:20;;;;;;;69.63;65.63;;;;;;;;;;5095709;28;19926;-92
2023/12/26 10:49:48;;;;;;;79.25;75.43;;;;;;;;;;5095619;28;20051;-91
2023/12/26 10:52:16;;;;;;;70.63;67.30;;;;;;;;;;5095231;28;20059;-92
2023/12/26 10:54:45;;;;;;;75.97;72.00;;;;;;;;;;5095377;28;20051;-93
2023/12/26 10:57:12;;;;;;;73.63;70.15;;;;;;;;;;5095652;28;20062;-92
2023/12/26 13:52:04;;;;;;;139.00;134.55;;;;;;;;;;5056125;28;20036;-91
2023/12/26 13:54:49;;;;;;;139.73;135.32;;;;;;;;;;5069694;28;20048;-91
2023/12/26 13:57:34;;;;;;;134.85;130.40;;;;;;;;;;5075405;28;20122;-90
2023/12/26 14:00:19;;;;;;;141.35;136.95;;;;;;;;;;5074901;28;20048;-90
2023/12/26 14:03:04;;;;;;;136.18;131.98;;;;;;;;;;5075570;28;20143;-89
2023/12/26 14:05:48;;;;;;;132.30;128.23;;;;;;;;;;5075621;28;20049;-89
2023/12/26 14:08:34;;;;;;;130.75;126.72;;;;;;;;;;5075154;28;20076;-90
2023/12/26 14:11:19;;;;;;;112.50;108.72;;;;;;;;;;5076842;28;20048;-89
2023/12/26 14:14:04;;;;;;;128.05;123.93;;;;;;;;;;5088508;28;20056;-90
2023/12/26 14:16:49;;;;;;;76.72;73.72;;;;;;;;;;5096298;28;20567;-90
2023/12/26 14:19:34;;;;;;;121.50;117.57;;;;;;;;;;5095020;28;20482;-90
2023/12/26 14:22:19;;;;;;;115.65;111.80;;;;;;;;;;5095097;28;20115;-89
2023/12/26 14:25:05;;;;;;;78.72;76.05;;;;;;;;;;5094912;28;20395;-90
2023/12/26 14:27:50;;;;;;;123.25;119.28;;;;;;;;;;5095291;28;20058;-89
2023/12/26 14:30:35;;;;;;;130.65;126.55;;;;;;;;;;5095081;28;20048;-89
2023/12/26 14:33:20;;;;;;;119.72;115.90;;;;;;;;;;5094982;28;20502;-89
2023/12/26 14:36:05;;;;;;;120.97;116.93;;;;;;;;;;5095493;28;20040;-89
2023/12/26 14:38:50;;;;;;;118.63;114.60;;;;;;;;;;5094655;28;20043;-89
2023/12/26 14:41:35;;;;;;;115.93;112.18;;;;;;;;;;5095347;28;20101;-89
2023/12/26 14:44:20;;;;;;;106.65;103.13;;;;;;;;;;5095002;28;20101;-88
2023/12/26 14:47:05;;;;;;;122.97;119.03;;;;;;;;;;5094969;28;20105;-89
2023/12/26 14:49:50;;;;;;;127.07;122.93;;;;;;;;;;5094712;28;20101;-89
2023/12/26 14:52:35;;;;;;;113.57;109.70;;;;;;;;;;5095211;28;20048;-89
2023/12/26 14:55:20;;;;;;;107.88;104.32;;;;;;;;;;5095294;28;20109;-89
2023/12/26 14:58:06;;;;;;;104.50;101.05;;;;;;;;;;5094940;28;20052;-89
2023/12/26 15:00:50;;;;;;;70.00;67.43;;;;;;;;;;5095357;28;20258;-89
2023/12/26 15:03:18;;;;;;;105.35;101.70;;;;;;;;;;5094659;28;20105;-87
2023/12/26 15:05:45;;;;;;;100.45;97.15;;;;;;;;;;5094096;28;20051;-87
2023/12/26 15:08:11;;;;;;;101.57;97.72;;;;;;;;;;5094654;28;20109;-88
2023/12/26 15:10:42;;;;;;;98.03;94.60;;;;;;;;;;5095095;28;20048;-87
2023/12/26 15:13:08;;;;;;;;;;;;;;;;;;5112076;22;20039;-72
2023/12/26 15:15:35;;;;;;;108.72;105.07;;;;;;;;;;5092080;28;20370;-73
2023/12/26 15:18:01;;;;;;;104.80;101.20;;;;;;;;;;5091819;28;20093;-72
2023/12/26 15:20:29;;;;;;;112.55;108.80;;;;;;;;;;5089623;28;20044;-72
2023/12/26 15:22:56;;;;;;;102.85;99.45;;;;;;;;;;5088426;28;20051;-71
2023/12/26 15:25:22;;;;;;;97.07;93.78;;;;;;;;;;5071446;28;20495;-71
2023/12/26 15:27:49;;;;;;;101.15;97.80;;;;;;;;;;5072472;28;20055;-71
2023/12/26 15:30:15;;;;;;;101.25;97.70;;;;;;;;;;5082477;28;20052;-72
2023/12/26 15:32:42;;;;;;;111.60;107.78;;;;;;;;;;5086709;28;20055;-72
2023/12/26 15:35:09;;;;;;;101.60;98.15;;;;;;;;;;5071684;28;20117;-71
2023/12/26 15:37:37;;;;;;;64.93;62.63;;;;;;;;;;5089884;28;20379;-71
2023/12/26 15:40:03;;;;;;;98.28;95.07;;;;;;;;;;5091145;28;20391;-71
2023/12/26 15:42:30;;;;;;;89.85;86.88;;;;;;;;;;5090750;28;20040;-72
2023/12/26 15:44:56;;;;;;;94.47;91.32;;;;;;;;;;5078484;28;20052;-72
2023/12/26 15:47:23;;;;;;;51.35;49.40;;;;;;;;;;5087860;28;20469;-72
2023/12/26 15:49:49;;;;;;;89.15;85.95;;;;;;;;;;5088091;28;20044;-72
2023/12/26 15:52:16;;;;;;;96.82;93.32;;;;;;;;;;5081232;28;20098;-71
2023/12/26 15:54:44;;;;;;;104.03;100.63;;;;;;;;;;5091391;28;20064;-70
2023/12/26 15:57:10;;;;;;;90.90;87.90;;;;;;;;;;5087436;28;20055;-71
2023/12/26 15:59:38;;;;;;;101.00;97.55;;;;;;;;;;5083875;28;20134;-71
2023/12/26 16:02:05;;;;;;;85.97;83.05;;;;;;;;;;5079067;28;20056;-71
2023/12/26 16:04:31;;;;;;;90.47;87.15;;;;;;;;;;5090684;28;20040;-70
2023/12/26 16:06:58;;;;;;;97.97;94.47;;;;;;;;;;5083478;28;20047;-71
2023/12/26 16:09:28;;;;;;;58.13;56.05;;;;;;;;;;5077634;28;20403;-70
2023/12/26 16:11:56;;;;;;;93.85;90.70;;;;;;;;;;5082120;28;20102;-70
2023/12/26 16:14:23;;;;;;;94.60;91.18;;;;;;;;;;5087656;28;20054;-70
2023/12/26 16:16:49;;;;;;;96.00;92.60;;;;;;;;;;5080053;28;20123;-71
2023/12/26 16:19:16;;;;;;;84.00;81.18;;;;;;;;;;5084159;28;20494;-71
2023/12/26 16:21:42;;;;;;;82.15;79.38;;;;;;;;;;5074787;28;20053;-70
2023/12/26 16:24:10;;;;;;;50.08;48.03;;;;;;;;;;5084191;28;20466;-71
2023/12/26 16:26:41;;;;;;;82.65;79.80;;;;;;;;;;5081483;28;20446;-71
2023/12/26 16:29:10;;;;;;;81.20;78.45;;;;;;;;;;5077028;28;20048;-71
2023/12/26 16:31:37;;;;;;;86.97;84.00;;;;;;;;;;5090885;28;20048;-70
2023/12/26 16:34:03;;;;;;;98.18;94.68;;;;;;;;;;5085705;28;20062;-71
2023/12/26 16:36:30;;;;;;;95.32;92.25;;;;;;;;;;5079841;28;20495;-69
2023/12/26 16:38:56;;;;;;;99.13;95.78;;;;;;;;;;5087572;28;20047;-70
2023/12/26 16:41:22;;;;;;;95.00;91.85;;;;;;;;;;5094101;28;20060;-71
2023/12/26 16:43:49;;;;;;;95.28;91.95;;;;;;;;;;5087934;28;20041;-71
2023/12/26 16:46:17;;;;;;;104.43;100.85;;;;;;;;;;5095204;28;20044;-71
2023/12/26 16:48:43;;;;;;;94.75;91.38;;;;;;;;;;5094065;28;20040;-71
2023/12/26 16:51:11;;;;;;;94.03;90.53;;;;;;;;;;5094974;28;20131;-70
2023/12/26 16:53:38;;;;;;;93.97;90.65;;;;;;;;;;5082173;28;20055;-69
2023/12/26 16:56:06;;;;;;;84.22;81.00;;;;;;;;;;5080129;28;20559;-71
2023/12/26 16:58:33;;;;;;;102.55;98.65;;;;;;;;;;5084454;28;20044;-70
2023/12/26 17:01:00;;;;;;;86.00;83.03;;;;;;;;;;5087728;28;20117;-71
2023/12/26 17:03:27;;;;;;;80.35;77.30;;;;;;;;;;5090616;28;20214;-70
2023/12/26 17:05:54;;;;;;;85.30;82.43;;;;;;;;;;5094316;28;20506;-70
2023/12/26 17:08:20;;;;;;;92.93;89.78;;;;;;;;;;5087176;28;20044;-70
2023/12/26 17:10:47;;;;;;;91.50;88.28;;;;;;;;;;5084575;28;20059;-70
2023/12/26 17:13:13;;;;;;;50.75;48.63;;;;;;;;;;5089023;28;20444;-70
2023/12/26 17:15:42;;;;;;;88.03;84.78;;;;;;;;;;5077442;28;20052;-71
2023/12/26 17:18:09;;;;;;;60.75;57.80;;;;;;;;;;5093982;28;20620;-70
2023/12/26 17:20:37;;;;;;;97.25;93.40;;;;;;;;;;5093595;28;20041;-70
2023/12/26 17:23:03;;;;;;;83.45;79.68;;;;;;;;;;5088462;28;20487;-70
2023/12/26 17:25:31;;;;;;;81.55;78.25;;;;;;;;;;5078859;28;20041;-69
2023/12/26 17:27:58;;;;;;;83.25;80.43;;;;;;;;;;5092353;28;20540;-70
2023/12/26 17:30:24;;;;;;;82.93;79.63;;;;;;;;;;5092881;28;20064;-69
2023/12/26 17:32:51;;;;;;;75.10;71.93;;;;;;;;;;5077201;28;20113;-70
2023/12/26 17:35:17;;;;;;;73.93;71.15;;;;;;;;;;5093603;28;20048;-71
2023/12/26 17:37:45;;;;;;;80.85;77.63;;;;;;;;;;5093572;28;20048;-71